Time;durP1;ratioP1;P1;durP2;ratioP2;P2;SDS_P1;SDS_P2;PMS_P1;PMS_P2;Temp;Humidity;BMP_temperature;BMP_pressure;BME280_temperature;BME280_humidity;BME280_pressure;Samples;Min_cycle;Max_cycle;Signal;HPM_P1;HPM_P2
2023/11/12 00:02:02;;;;;;;10.67;4.10;;;4.50;99.90;;;;;;4911104;28;20264;-64
2023/11/12 00:04:27;;;;;;;7.40;4.30;;;4.40;99.90;;;;;;4910500;28;20221;-65
2023/11/12 00:06:53;;;;;;;10.63;4.70;;;4.20;99.90;;;;;;4911144;28;20257;-64
2023/11/12 00:09:19;;;;;;;11.93;4.73;;;4.10;99.90;;;;;;4911360;28;20202;-64
2023/11/12 00:11:44;;;;;;;8.50;4.87;;;4.00;99.90;;;;;;4910911;28;20249;-65
2023/11/12 00:14:10;;;;;;;8.37;4.43;;;3.90;99.90;;;;;;4902542;28;20184;-64
2023/11/12 00:16:36;;;;;;;8.97;4.70;;;3.90;99.90;;;;;;4911245;28;20184;-64
2023/11/12 00:19:04;;;;;;;7.73;4.37;;;3.80;99.90;;;;;;4913097;28;20242;-64
2023/11/12 00:21:29;;;;;;;8.93;4.60;;;3.80;99.90;;;;;;4913319;28;20207;-64
2023/11/12 00:23:55;;;;;;;8.17;4.23;;;3.80;99.90;;;;;;4913639;28;20267;-64
2023/11/12 00:26:22;;;;;;;12.20;4.80;;;3.70;99.90;;;;;;4914364;28;20616;-64
2023/11/12 00:28:48;;;;;;;7.23;4.17;;;3.70;99.90;;;;;;4905016;28;20181;-64
2023/11/12 00:31:14;;;;;;;8.13;4.20;;;3.60;99.90;;;;;;4947422;28;20204;-64
2023/11/12 00:33:40;;;;;;;8.63;4.23;;;3.50;99.90;;;;;;4913949;28;20245;-64
2023/11/12 00:36:06;;;;;;;7.67;3.63;;;3.50;99.90;;;;;;4906164;28;20179;-64
2023/11/12 00:38:31;;;;;;;9.20;4.07;;;3.30;99.90;;;;;;4914159;28;20220;-65
2023/11/12 00:40:57;;;;;;;8.43;3.63;;;3.30;99.90;;;;;;4913912;28;20239;-64
2023/11/12 00:43:27;;;;;;;7.07;4.13;;;3.30;99.90;;;;;;4914230;28;20188;-64
2023/11/12 00:45:57;;;;;;;9.00;4.90;;;3.20;99.90;;;;;;4913315;28;20697;-65
2023/11/12 00:48:23;;;;;;;9.90;4.40;;;3.20;99.90;;;;;;4914277;28;20187;-65
2023/11/12 00:50:48;;;;;;;10.00;4.87;;;3.10;99.90;;;;;;4913688;28;20693;-64
2023/11/12 00:53:14;;;;;;;12.27;5.37;;;3.10;99.90;;;;;;4913967;28;20266;-64
2023/11/12 00:55:39;;;;;;;8.77;4.77;;;3.10;99.90;;;;;;4913398;28;20246;-64
2023/11/12 00:58:05;;;;;;;11.03;4.77;;;3.00;99.90;;;;;;4905920;28;20263;-65
2023/11/12 01:00:31;;;;;;;9.70;4.93;;;3.00;99.90;;;;;;4913763;28;20204;-64
2023/11/12 01:02:57;;;;;;;7.87;4.87;;;2.90;99.90;;;;;;4913551;28;20183;-64
2023/11/12 01:05:22;;;;;;;12.13;4.90;;;2.90;99.90;;;;;;4913255;28;20176;-64
2023/11/12 01:07:48;;;;;;;10.33;5.83;;;2.80;99.90;;;;;;4905999;28;20676;-64
2023/11/12 01:10:14;;;;;;;10.40;4.97;;;2.80;99.90;;;;;;4913703;28;20235;-64
2023/11/12 01:12:39;;;;;;;18.17;8.03;;;2.70;99.90;;;;;;4913588;28;20250;-64
2023/11/12 01:15:06;;;;;;;9.50;5.63;;;2.70;99.90;;;;;;4912566;28;20180;-64
2023/11/12 01:17:31;;;;;;;15.57;5.93;;;2.70;99.90;;;;;;4913459;28;20677;-64
2023/11/12 01:20:00;;;;;;;9.10;5.23;;;2.60;99.90;;;;;;4913294;28;20238;-64
2023/11/12 01:22:26;;;;;;;10.03;5.40;;;2.60;99.90;;;;;;4913633;28;20196;-64
2023/11/12 01:24:51;;;;;;;15.73;5.40;;;2.50;99.90;;;;;;4912757;28;20603;-64
2023/11/12 01:27:17;;;;;;;13.60;5.43;;;2.50;99.90;;;;;;4913370;28;20181;-64
2023/11/12 01:29:43;;;;;;;15.70;6.10;;;2.50;99.90;;;;;;4904717;28;20180;-64
2023/11/12 01:32:09;;;;;;;10.33;5.87;;;2.60;99.90;;;;;;4905770;28;20207;-64
2023/11/12 01:34:35;;;;;;;13.30;5.67;;;2.70;99.90;;;;;;4912754;28;20192;-64
2023/11/12 01:37:00;;;;;;;16.00;6.10;;;2.70;99.90;;;;;;4913364;28;20192;-64
2023/11/12 01:39:26;;;;;;;11.13;6.67;;;2.80;99.90;;;;;;4913377;28;20184;-64
2023/11/12 01:41:52;;;;;;;14.30;6.33;;;2.80;99.90;;;;;;4919148;28;20212;-64
2023/11/12 01:44:18;;;;;;;13.37;6.63;;;2.90;99.90;;;;;;4938929;28;20188;-64
2023/11/12 01:46:44;;;;;;;15.93;7.30;;;2.90;99.90;;;;;;4912969;28;20733;-65
2023/11/12 01:49:09;;;;;;;14.00;6.87;;;3.00;99.90;;;;;;4913141;28;20254;-64
2023/11/12 01:51:37;;;;;;;17.87;7.53;;;3.00;99.90;;;;;;4913081;28;20824;-65
2023/11/12 01:54:03;;;;;;;12.23;6.93;;;3.00;99.90;;;;;;4912430;28;20191;-65
2023/11/12 01:56:29;;;;;;;12.53;6.00;;;3.00;99.90;;;;;;4913028;28;20172;-64
2023/11/12 01:58:57;;;;;;;20.83;8.53;;;3.00;99.90;;;;;;4912960;28;20661;-64
2023/11/12 02:01:23;;;;;;;17.47;8.40;;;2.90;99.90;;;;;;4912901;28;20559;-64
2023/11/12 02:03:51;;;;;;;16.93;8.47;;;2.90;99.90;;;;;;4911825;28;20199;-64
2023/11/12 02:06:17;;;;;;;14.27;7.43;;;2.90;99.90;;;;;;4906428;28;20188;-64
2023/11/12 02:08:43;;;;;;;15.33;7.80;;;3.00;99.90;;;;;;4912831;28;20196;-64
2023/11/12 02:11:09;;;;;;;13.30;7.37;;;3.00;99.90;;;;;;4911416;28;20277;-64
2023/11/12 02:13:41;;;;;;;12.93;7.30;;;2.90;99.90;;;;;;4912550;28;20184;-64
2023/11/12 02:16:07;;;;;;;13.30;7.63;;;3.00;99.90;;;;;;4912194;28;20198;-65
2023/11/12 02:18:32;;;;;;;12.60;7.27;;;3.00;99.90;;;;;;4912919;28;20646;-65
2023/11/12 02:20:58;;;;;;;12.50;7.33;;;3.10;99.90;;;;;;4912600;28;20207;-64
2023/11/12 02:23:24;;;;;;;13.70;7.23;;;3.00;99.90;;;;;;4912475;28;20185;-64
2023/11/12 02:25:50;;;;;;;16.03;7.57;;;3.00;99.90;;;;;;4912010;28;20649;-65
2023/11/12 02:28:21;;;;;;;12.87;7.17;;;3.00;99.90;;;;;;4912419;28;20554;-64
2023/11/12 02:30:47;;;;;;;14.47;7.50;;;3.10;99.90;;;;;;4911595;28;20200;-64
2023/11/12 02:33:13;;;;;;;15.63;7.87;;;3.10;99.90;;;;;;4905455;28;20223;-64
2023/11/12 02:35:42;;;;;;;15.63;7.67;;;3.10;99.90;;;;;;4912049;28;20219;-64
2023/11/12 02:38:11;;;;;;;23.77;8.30;;;3.00;99.90;;;;;;4912519;28;20195;-64
2023/11/12 02:40:37;;;;;;;14.53;8.17;;;3.10;99.90;;;;;;4911411;28;20772;-65
2023/11/12 02:43:03;;;;;;;20.60;7.77;;;3.10;99.90;;;;;;4912014;28;20188;-65
2023/11/12 02:45:29;;;;;;;13.10;7.10;;;3.00;99.90;;;;;;4911568;28;20183;-65
2023/11/12 02:47:55;;;;;;;13.60;6.80;;;3.00;99.90;;;;;;4912200;28;20238;-64
2023/11/12 02:50:31;;;;;;;14.73;7.07;;;3.00;99.90;;;;;;4912057;28;20253;-65
2023/11/12 02:53:00;;;;;;;18.10;7.33;;;3.00;99.90;;;;;;4911947;28;20204;-64
2023/11/12 02:55:27;;;;;;;13.53;7.13;;;2.90;99.90;;;;;;4911525;28;20306;-65
2023/11/12 02:57:53;;;;;;;14.10;7.03;;;2.90;99.90;;;;;;4912187;28;20250;-64
2023/11/12 03:00:19;;;;;;;13.07;6.77;;;2.90;99.90;;;;;;4911907;28;20776;-64
2023/11/12 03:02:49;;;;;;;14.00;7.33;;;2.90;99.90;;;;;;4911879;28;20665;-65
2023/11/12 03:05:15;;;;;;;13.53;7.57;;;3.00;99.90;;;;;;4911449;28;20724;-64
2023/11/12 03:07:43;;;;;;;15.10;7.03;;;3.00;99.90;;;;;;4911901;28;20278;-65
2023/11/12 03:10:09;;;;;;;12.67;6.90;;;3.00;99.90;;;;;;4911793;28;20684;-65
2023/11/12 03:12:39;;;;;;;13.07;7.10;;;3.10;99.90;;;;;;4911879;28;20218;-64
2023/11/12 03:15:06;;;;;;;14.00;7.33;;;3.10;99.90;;;;;;4911170;28;20657;-65
2023/11/12 03:17:33;;;;;;;11.77;6.80;;;3.20;99.90;;;;;;4912010;28;20210;-65
2023/11/12 03:19:59;;;;;;;13.93;6.90;;;3.20;99.90;;;;;;4911723;28;20704;-65
2023/11/12 03:22:24;;;;;;;15.57;8.03;;;3.20;99.90;;;;;;4911789;28;20215;-74
2023/11/12 03:24:50;;;;;;;15.83;8.07;;;3.30;99.90;;;;;;4909843;28;20198;-74
2023/11/12 03:27:16;;;;;;;17.67;9.30;;;3.40;99.90;;;;;;4911810;28;20275;-74
2023/11/12 03:29:42;;;;;;;16.27;8.83;;;3.50;99.90;;;;;;4911588;28;20623;-75
2023/11/12 03:32:08;;;;;;;14.50;8.23;;;3.60;99.90;;;;;;4911702;28;20283;-75
2023/11/12 03:34:33;;;;;;;15.73;7.00;;;3.70;99.90;;;;;;4911125;28;20230;-75
2023/11/12 03:36:59;;;;;;;15.07;8.17;;;3.80;99.90;;;;;;4911461;28;20525;-77
2023/11/12 03:39:24;;;;;;;11.97;7.00;;;3.90;99.90;;;;;;4911511;28;20187;-74
2023/11/12 03:41:50;;;;;;;13.97;7.00;;;4.00;99.90;;;;;;4911374;28;20215;-74
2023/11/12 03:44:16;;;;;;;14.70;7.17;;;3.90;99.90;;;;;;4910815;28;20712;-74
2023/11/12 03:46:42;;;;;;;12.97;7.57;;;3.80;99.90;;;;;;4911492;28;20188;-76
2023/11/12 03:49:07;;;;;;;14.60;7.73;;;3.80;99.90;;;;;;4911280;28;20207;-74
2023/11/12 03:51:33;;;;;;;13.43;7.27;;;3.80;99.90;;;;;;4911178;28;20207;-74
2023/11/12 03:54:02;;;;;;;15.60;8.20;;;4.00;99.90;;;;;;4910669;28;20673;-75
2023/11/12 03:56:29;;;;;;;12.33;7.50;;;4.00;99.90;;;;;;4911407;28;20195;-74
2023/11/12 03:58:58;;;;;;;19.33;6.77;;;4.10;99.90;;;;;;4911159;28;20180;-75
2023/11/12 04:01:24;;;;;;;16.20;7.60;;;4.30;99.90;;;;;;4911087;28;20219;-74
2023/11/12 04:03:50;;;;;;;12.57;6.63;;;4.30;99.90;;;;;;4910935;28;20709;-77
2023/11/12 04:06:18;;;;;;;11.67;6.90;;;4.20;99.90;;;;;;4911114;28;20238;-74
2023/11/12 04:08:44;;;;;;;10.43;6.50;;;4.20;99.90;;;;;;4910997;28;20267;-75
2023/11/12 04:11:10;;;;;;;11.23;6.37;;;4.10;99.90;;;;;;4911111;28;20302;-74
2023/11/12 04:13:35;;;;;;;12.77;6.43;;;4.00;99.90;;;;;;4910995;28;20176;-74
2023/11/12 04:16:01;;;;;;;11.47;6.70;;;4.10;99.90;;;;;;4910544;28;20211;-74
2023/11/12 04:18:26;;;;;;;12.73;6.57;;;4.10;99.90;;;;;;4911198;28;20192;-74
2023/11/12 04:20:52;;;;;;;13.70;6.67;;;4.20;99.90;;;;;;4910940;28;20292;-76
2023/11/12 04:23:17;;;;;;;11.90;6.80;;;4.20;99.90;;;;;;4911049;28;20186;-74
2023/11/12 04:25:47;;;;;;;13.20;7.77;;;4.30;99.90;;;;;;4910637;28;20607;-74
2023/11/12 04:28:13;;;;;;;13.60;6.93;;;4.20;99.90;;;;;;4911078;28;20183;-74
2023/11/12 04:30:39;;;;;;;13.90;7.47;;;4.10;99.90;;;;;;4903068;28;20200;-74
2023/11/12 04:33:05;;;;;;;14.57;7.83;;;4.20;99.90;;;;;;4908003;28;20608;-75
2023/11/12 04:35:31;;;;;;;15.57;7.83;;;4.20;99.90;;;;;;4905372;28;20168;-75
2023/11/12 04:37:57;;;;;;;14.63;7.47;;;4.20;99.90;;;;;;4910733;28;20180;-74
2023/11/12 04:40:22;;;;;;;13.23;7.47;;;4.20;99.90;;;;;;4910796;28;20615;-74
2023/11/12 04:42:48;;;;;;;14.30;7.37;;;4.30;99.90;;;;;;4910930;28;20384;-74
2023/11/12 04:45:14;;;;;;;13.17;7.47;;;4.30;99.90;;;;;;4910136;28;20202;-75
2023/11/12 04:47:40;;;;;;;11.80;7.47;;;4.30;99.90;;;;;;4910824;28;20296;-74
2023/11/12 04:50:06;;;;;;;15.97;8.80;;;4.30;99.90;;;;;;4910665;28;20764;-74
2023/11/12 04:52:32;;;;;;;18.53;8.60;;;4.40;99.90;;;;;;4910535;28;20558;-74
2023/11/12 04:54:57;;;;;;;14.40;8.03;;;4.50;99.90;;;;;;4910096;28;20199;-74
2023/11/12 04:57:23;;;;;;;13.63;7.70;;;4.70;99.90;;;;;;4910841;28;20243;-73
2023/11/12 04:59:50;;;;;;;14.77;7.53;;;4.70;99.90;;;;;;4910498;28;20303;-73
2023/11/12 05:02:15;;;;;;;12.77;7.57;;;4.80;99.90;;;;;;4910587;28;20274;-74
2023/11/12 05:04:41;;;;;;;13.13;6.57;;;4.80;99.90;;;;;;4911693;28;20215;-74
2023/11/12 05:07:07;;;;;;;14.73;6.47;;;4.70;99.90;;;;;;4913694;28;20637;-74
2023/11/12 05:09:33;;;;;;;14.43;6.87;;;4.60;99.90;;;;;;4913842;28;20202;-74
2023/11/12 05:11:59;;;;;;;12.47;6.90;;;4.50;99.90;;;;;;4913595;28;20220;-73
2023/11/12 05:14:24;;;;;;;11.60;6.73;;;4.40;99.90;;;;;;4912742;28;20188;-73
2023/11/12 05:16:50;;;;;;;13.63;7.20;;;4.40;99.90;;;;;;4946687;28;20222;-73
2023/11/12 05:19:15;;;;;;;15.00;7.17;;;4.40;99.90;;;;;;4913571;28;20184;-75
2023/11/12 05:21:44;;;;;;;11.57;6.60;;;4.50;99.90;;;;;;4913676;28;20211;-73
2023/11/12 05:24:09;;;;;;;13.83;7.57;;;4.50;99.90;;;;;;4905371;28;20202;-75
2023/11/12 05:26:35;;;;;;;15.37;7.33;;;4.40;99.90;;;;;;4912539;28;20192;-75
2023/11/12 05:29:01;;;;;;;15.53;7.47;;;4.40;99.90;;;;;;4913564;28;20195;-73
2023/11/12 05:31:26;;;;;;;14.40;7.57;;;4.40;99.90;;;;;;4911990;28;20222;-73
2023/11/12 05:33:52;;;;;;;14.40;7.40;;;4.40;99.90;;;;;;4912717;28;20191;-73
2023/11/12 05:36:17;;;;;;;12.20;6.83;;;4.40;99.90;;;;;;4913096;28;20184;-73
2023/11/12 05:38:43;;;;;;;13.30;7.10;;;4.40;99.90;;;;;;4913386;28;20630;-73
2023/11/12 05:41:09;;;;;;;14.47;7.40;;;4.40;99.90;;;;;;4913071;28;20681;-73
2023/11/12 05:43:34;;;;;;;15.23;7.20;;;4.40;99.90;;;;;;4912984;28;20322;-74
2023/11/12 05:46:00;;;;;;;16.77;7.17;;;4.50;99.90;;;;;;4912597;28;20607;-74
2023/11/12 05:48:25;;;;;;;14.40;6.90;;;4.50;99.90;;;;;;4912889;28;20191;-73
2023/11/12 05:50:51;;;;;;;17.77;8.37;;;4.30;99.90;;;;;;4905248;28;20403;-74
2023/11/12 05:53:17;;;;;;;17.63;8.07;;;4.30;99.90;;;;;;4913054;28;20666;-74
2023/11/12 05:55:42;;;;;;;14.47;7.67;;;4.30;99.90;;;;;;4912540;28;20184;-74
2023/11/12 05:58:08;;;;;;;12.50;6.80;;;4.20;99.90;;;;;;4913020;28;20207;-74
2023/11/12 06:00:33;;;;;;;13.57;7.73;;;4.00;99.90;;;;;;4912834;28;20266;-73
2023/11/12 06:02:59;;;;;;;16.70;7.37;;;3.80;99.90;;;;;;4912856;28;20206;-74
2023/11/12 06:05:24;;;;;;;11.43;6.30;;;3.80;99.90;;;;;;4912349;28;20184;-74
2023/11/12 06:07:50;;;;;;;11.60;6.43;;;3.90;99.90;;;;;;4912878;28;20206;-73
2023/11/12 06:10:15;;;;;;;11.90;6.60;;;3.80;99.90;;;;;;4912881;28;20208;-74
2023/11/12 06:12:41;;;;;;;12.37;6.20;;;3.50;99.90;;;;;;4912765;28;20220;-74
2023/11/12 06:15:07;;;;;;;12.10;7.07;;;3.50;99.90;;;;;;4910895;28;20188;-74
2023/11/12 06:17:32;;;;;;;16.60;7.13;;;3.50;99.90;;;;;;4912316;28;20685;-74
2023/11/12 06:19:58;;;;;;;18.43;7.10;;;3.40;99.90;;;;;;4912403;28;20271;-73
2023/11/12 06:22:23;;;;;;;13.03;7.03;;;3.30;99.90;;;;;;4912935;28;20653;-73
2023/11/12 06:24:49;;;;;;;16.50;6.57;;;3.40;99.90;;;;;;4912129;28;20715;-73
2023/11/12 06:27:14;;;;;;;14.70;6.93;;;3.40;99.90;;;;;;4912823;28;20188;-73
2023/11/12 06:29:40;;;;;;;12.83;6.37;;;3.40;99.90;;;;;;4912582;28;20577;-74
2023/11/12 06:32:06;;;;;;;13.63;6.37;;;3.30;99.90;;;;;;4912520;28;20223;-74
2023/11/12 06:34:34;;;;;;;12.13;6.80;;;3.20;99.90;;;;;;4911994;28;20176;-74
2023/11/12 06:37:00;;;;;;;19.27;7.40;;;3.10;99.90;;;;;;4912630;28;20271;-74
2023/11/12 06:39:26;;;;;;;12.40;7.27;;;3.00;99.90;;;;;;4912533;28;20718;-74
2023/11/12 06:41:51;;;;;;;13.27;6.87;;;3.10;99.90;;;;;;4912371;28;20212;-74
2023/11/12 06:44:17;;;;;;;13.20;7.10;;;3.10;99.90;;;;;;4911886;28;20184;-74
2023/11/12 06:46:45;;;;;;;14.23;7.00;;;3.00;99.90;;;;;;4904371;28;20180;-74
2023/11/12 06:49:10;;;;;;;17.23;7.93;;;3.00;99.90;;;;;;4901201;28;20254;-74
2023/11/12 06:51:36;;;;;;;11.43;6.70;;;3.10;99.90;;;;;;4907567;28;20211;-73
2023/11/12 06:54:03;;;;;;;9.93;6.10;;;3.20;99.90;;;;;;4911285;28;20188;-74
2023/11/12 06:56:33;;;;;;;16.03;7.10;;;3.10;99.90;;;;;;4911448;28;20180;-74
2023/11/12 06:59:00;;;;;;;11.73;7.00;;;3.10;99.90;;;;;;4903262;28;20184;-73
2023/11/12 07:01:25;;;;;;;14.90;8.40;;;3.10;99.90;;;;;;4911425;28;20346;-74
2023/11/12 07:03:51;;;;;;;16.20;7.23;;;3.20;99.90;;;;;;4910810;28;20279;-73
2023/11/12 07:06:16;;;;;;;12.93;7.23;;;3.20;99.90;;;;;;4911487;28;20285;-75
2023/11/12 07:08:42;;;;;;;17.83;10.57;;;3.30;99.90;;;;;;4911432;28;20192;-73
2023/11/12 07:11:09;;;;;;;46.73;24.20;;;3.30;99.90;;;;;;4899245;28;20208;-74
2023/11/12 07:13:35;;;;;;;23.57;11.90;;;3.40;99.90;;;;;;4906372;28;20195;-73
2023/11/12 07:16:02;;;;;;;20.90;9.63;;;3.50;99.90;;;;;;4910598;28;20191;-73
2023/11/12 07:18:28;;;;;;;18.40;8.90;;;3.50;99.90;;;;;;4911150;28;20211;-74
2023/11/12 07:20:54;;;;;;;17.20;8.53;;;3.50;99.90;;;;;;4910680;28;20318;-74
2023/11/12 07:23:19;;;;;;;80.70;32.70;;;3.50;99.90;;;;;;4910462;28;20212;-73
2023/11/12 07:25:45;;;;;;;47.93;20.73;;;3.50;99.90;;;;;;4910755;28;20195;-74
2023/11/12 07:28:10;;;;;;;53.93;21.83;;;3.60;99.90;;;;;;4910617;28;20572;-74
2023/11/12 07:30:37;;;;;;;84.90;35.53;;;3.60;99.90;;;;;;4910783;28;20234;-74
2023/11/12 07:33:04;;;;;;;63.70;29.57;;;3.60;99.90;;;;;;4910813;28;20667;-73
2023/11/12 07:35:30;;;;;;;64.87;27.77;;;3.60;99.90;;;;;;4910436;28;20262;-73
2023/11/12 07:37:56;;;;;;;51.07;24.20;;;3.70;99.90;;;;;;4909839;28;20263;-73
2023/11/12 07:40:23;;;;;;;46.23;21.10;;;3.90;99.90;;;;;;4910837;28;20633;-73
2023/11/12 07:42:48;;;;;;;36.53;17.23;;;3.90;99.90;;;;;;4910582;28;20188;-76
2023/11/12 07:45:15;;;;;;;30.53;13.90;;;4.00;99.90;;;;;;4910570;28;20204;-73
2023/11/12 07:47:41;;;;;;;32.73;15.07;;;4.10;99.90;;;;;;4910890;28;20176;-74
2023/11/12 07:50:07;;;;;;;43.93;15.77;;;4.20;99.90;;;;;;4910576;28;20773;-74
2023/11/12 07:52:35;;;;;;;26.63;13.67;;;4.30;99.90;;;;;;4910737;28;20211;-74
2023/11/12 07:55:01;;;;;;;29.00;12.23;;;4.50;99.90;;;;;;4910583;28;20596;-74
2023/11/12 07:57:26;;;;;;;24.30;10.97;;;4.60;99.90;;;;;;4910618;28;20188;-75
2023/11/12 07:59:52;;;;;;;20.27;10.77;;;4.50;99.90;;;;;;4910401;28;20192;-73
2023/11/12 08:02:19;;;;;;;22.40;11.27;;;4.60;99.90;;;;;;4910743;28;20188;-73
2023/11/12 08:04:44;;;;;;;24.20;11.57;;;4.60;99.90;;;;;;4910081;28;20202;-73
2023/11/12 08:07:10;;;;;;;32.33;12.57;;;4.60;99.90;;;;;;4910556;28;20191;-73
2023/11/12 08:09:36;;;;;;;26.57;11.93;;;4.70;99.90;;;;;;4902855;28;20187;-75
2023/11/12 08:12:03;;;;;;;22.10;11.67;;;4.70;99.90;;;;;;4910287;28;20582;-73
2023/11/12 08:14:29;;;;;;;24.53;11.73;;;4.60;99.90;;;;;;4910022;28;20176;-73
2023/11/12 08:16:54;;;;;;;27.30;12.03;;;4.60;99.90;;;;;;4910427;28;20184;-73
2023/11/12 08:19:21;;;;;;;27.83;13.67;;;4.60;99.90;;;;;;4910590;28;20192;-73
2023/11/12 08:21:46;;;;;;;25.20;10.57;;;4.60;99.90;;;;;;4910284;28;20716;-77
2023/11/12 08:24:12;;;;;;;26.53;11.33;;;4.70;99.90;;;;;;4909899;28;20192;-74
2023/11/12 08:26:40;;;;;;;29.67;12.77;;;4.80;99.90;;;;;;4910632;28;20184;-72
2023/11/12 08:29:09;;;;;;;21.20;10.90;;;5.00;99.90;;;;;;4910427;28;20284;-73
2023/11/12 08:31:36;;;;;;;22.07;11.37;;;5.00;99.90;;;;;;4910233;28;20646;-73
2023/11/12 08:34:02;;;;;;;25.23;12.17;;;5.00;99.90;;;;;;4901880;28;20553;-73
2023/11/12 08:36:29;;;;;;;21.70;11.67;;;5.10;99.90;;;;;;4910426;28;20207;-74
2023/11/12 08:38:55;;;;;;;19.03;10.67;;;5.00;99.90;;;;;;4911059;28;20203;-73
2023/11/12 08:41:20;;;;;;;24.87;11.13;;;5.10;99.90;;;;;;4913616;28;20684;-73
2023/11/12 08:43:46;;;;;;;24.80;12.47;;;5.10;99.90;;;;;;4913667;28;20191;-73
2023/11/12 08:46:15;;;;;;;23.70;12.53;;;5.20;99.90;;;;;;4905222;28;20182;-74
2023/11/12 08:48:42;;;;;;;33.00;18.47;;;5.30;99.90;;;;;;4943215;28;20271;-73
2023/11/12 08:51:11;;;;;;;109.27;53.27;;;5.30;99.90;;;;;;4915303;28;20211;-73
2023/11/12 08:53:39;;;;;;;30.90;15.73;;;5.30;99.90;;;;;;4913279;28;20183;-73
2023/11/12 08:56:05;;;;;;;28.23;12.70;;;5.50;99.90;;;;;;4913033;28;20234;-75
2023/11/12 08:58:31;;;;;;;36.40;19.30;;;5.60;99.90;;;;;;4913292;28;20172;-72
2023/11/12 09:00:57;;;;;;;23.17;12.33;;;5.70;99.90;;;;;;4913049;28;20215;-73
2023/11/12 09:03:23;;;;;;;21.63;11.90;;;5.70;99.90;;;;;;4905453;28;20315;-73
2023/11/12 09:05:49;;;;;;;19.63;9.93;;;5.80;99.90;;;;;;4912676;28;20229;-73
2023/11/12 09:08:15;;;;;;;19.80;10.00;;;5.90;99.90;;;;;;4913215;28;20657;-73
2023/11/12 09:10:41;;;;;;;19.57;11.17;;;5.90;99.90;;;;;;4913201;29;20211;-74
2023/11/12 09:13:07;;;;;;;23.77;12.57;;;5.90;99.90;;;;;;4912968;28;20216;-73
2023/11/12 09:15:33;;;;;;;20.80;10.70;;;5.80;99.90;;;;;;4912604;28;20646;-73
2023/11/12 09:17:59;;;;;;;19.60;10.37;;;5.90;99.90;;;;;;4912902;28;20203;-73
2023/11/12 09:20:24;;;;;;;17.37;8.90;;;5.90;99.90;;;;;;4905197;28;20211;-74
2023/11/12 09:22:50;;;;;;;17.53;9.53;;;5.90;99.90;;;;;;4912515;28;20196;-75
2023/11/12 09:25:15;;;;;;;23.87;11.53;;;5.90;99.90;;;;;;4905130;28;20605;-73
2023/11/12 09:27:41;;;;;;;19.90;10.33;;;6.10;99.90;;;;;;4912950;28;20184;-73
2023/11/12 09:30:10;;;;;;;29.43;11.47;;;6.20;99.90;;;;;;4912605;28;20211;-75
2023/11/12 09:32:36;;;;;;;25.07;11.00;;;6.30;99.90;;;;;;4912757;28;20204;-76
2023/11/12 09:35:04;;;;;;;14.00;7.87;;;6.40;99.90;;;;;;4910775;28;20674;-73
2023/11/12 09:37:29;;;;;;;12.53;7.73;;;6.50;99.90;;;;;;4911514;28;20208;-73
2023/11/12 09:39:55;;;;;;;14.47;7.07;;;6.40;99.90;;;;;;4912525;28;20207;-73
2023/11/12 09:42:25;;;;;;;13.50;7.63;;;6.50;99.90;;;;;;4912668;28;20187;-73
2023/11/12 09:44:54;;;;;;;13.63;8.00;;;6.60;99.90;;;;;;4911837;28;20196;-72
2023/11/12 09:47:42;;;;;;;14.10;7.70;;;6.70;99.90;;;;;;4912736;28;20212;-72
2023/11/12 09:50:10;;;;;;;11.87;5.90;;;6.60;99.90;;;;;;4912128;28;20731;-72
2023/11/12 09:52:36;;;;;;;12.20;5.80;;;6.60;99.90;;;;;;4912612;28;20578;-73
2023/11/12 09:55:03;;;;;;;9.63;5.37;;;6.50;99.90;;;;;;4944795;28;20190;-73
2023/11/12 09:57:29;;;;;;;7.23;4.57;;;6.50;99.90;;;;;;4912446;28;20200;-75
2023/11/12 09:59:55;;;;;;;7.77;4.60;;;6.60;99.90;;;;;;4912158;28;20192;-75
2023/11/12 10:02:21;;;;;;;10.93;4.83;;;6.60;99.90;;;;;;4912058;28;20203;-73
2023/11/12 10:04:59;;;;;;;8.77;4.87;;;6.70;99.90;;;;;;4911734;28;20245;-73
2023/11/12 10:07:25;;;;;;;16.53;7.63;;;6.70;99.90;;;;;;4907703;28;20254;-72
2023/11/12 10:09:51;;;;;;;11.57;5.57;;;6.70;99.90;;;;;;4909248;28;20196;-72
2023/11/12 10:12:16;;;;;;;10.43;5.37;;;6.70;99.90;;;;;;4912231;28;20283;-73
2023/11/12 10:14:43;;;;;;;10.67;4.87;;;6.70;99.90;;;;;;4911518;28;20180;-73
2023/11/12 10:17:11;;;;;;;10.50;5.93;;;6.70;99.90;;;;;;4911994;28;20718;-74
2023/11/12 10:19:37;;;;;;;14.50;5.77;;;6.70;99.90;;;;;;4911917;28;20696;-73
2023/11/12 10:22:06;;;;;;;8.70;4.87;;;6.50;99.90;;;;;;4911951;28;20200;-73
2023/11/12 10:24:45;;;;;;;8.17;4.80;;;6.50;99.90;;;;;;4911584;28;20188;-73
2023/11/12 10:27:12;;;;;;;8.97;5.10;;;6.50;99.90;;;;;;4904276;28;20208;-73
2023/11/12 10:29:43;;;;;;;12.47;6.33;;;6.40;99.90;;;;;;4911963;28;20310;-73
2023/11/12 10:32:24;;;;;;;10.10;4.43;;;6.40;99.90;;;;;;4911810;28;20645;-73
2023/11/12 10:34:50;;;;;;;10.83;4.97;;;6.40;99.90;;;;;;4911172;28;20184;-73
2023/11/12 10:37:17;;;;;;;5.60;3.87;;;6.30;99.90;;;;;;4912017;28;20176;-74
2023/11/12 10:39:44;;;;;;;9.80;4.83;;;6.20;99.90;;;;;;4911453;28;20180;-73
2023/11/12 10:42:21;;;;;;;11.57;4.80;;;6.30;99.90;;;;;;4903815;28;20195;-73
2023/11/12 10:44:54;;;;;;;9.90;4.50;;;6.30;99.90;;;;;;4911359;28;20554;-73
2023/11/12 10:47:22;;;;;;;5.20;3.87;;;6.30;99.90;;;;;;4911776;28;20191;-73
2023/11/12 10:49:49;;;;;;;8.80;4.50;;;6.40;99.90;;;;;;4911441;28;20218;-73
2023/11/12 10:52:16;;;;;;;5.63;3.40;;;6.50;99.90;;;;;;4911616;28;20207;-74
2023/11/12 10:54:45;;;;;;;8.23;4.77;;;6.40;99.90;;;;;;4903215;28;20346;-73
2023/11/12 10:57:15;;;;;;;12.87;6.13;;;6.40;99.90;;;;;;4908558;28;20182;-73
2023/11/12 10:59:43;;;;;;;8.63;4.03;;;6.50;99.90;;;;;;4907295;28;20184;-72
2023/11/12 11:02:18;;;;;;;8.30;3.90;;;6.50;99.90;;;;;;4902673;28;20709;-74
2023/11/12 11:04:48;;;;;;;7.33;3.83;;;6.60;99.90;;;;;;4940677;28;20271;-72
2023/11/12 11:07:14;;;;;;;6.73;4.10;;;6.60;99.90;;;;;;4903105;28;20681;-72
2023/11/12 11:09:40;;;;;;;15.03;6.33;;;6.80;99.90;;;;;;4911651;28;20184;-73
2023/11/12 11:12:08;;;;;;;9.37;3.90;;;6.90;99.90;;;;;;4911018;28;20204;-73
2023/11/12 11:14:34;;;;;;;8.33;4.40;;;6.90;99.90;;;;;;4908335;28;20238;-73
2023/11/12 11:17:00;;;;;;;7.50;4.00;;;6.80;99.90;;;;;;4910871;28;20319;-76
2023/11/12 11:19:43;;;;;;;8.10;3.90;;;6.90;99.90;;;;;;4910848;28;20689;-73
2023/11/12 11:22:21;;;;;;;5.77;3.57;;;6.90;99.90;;;;;;4908417;28;20295;-73
2023/11/12 11:24:47;;;;;;;14.93;7.33;;;6.90;99.90;;;;;;4910178;28;20187;-73
2023/11/12 11:27:12;;;;;;;23.30;9.57;;;6.90;99.90;;;;;;4910913;28;20203;-74
2023/11/12 11:30:16;;;;;;;35.07;14.77;;;7.00;99.90;;;;;;4911029;28;20669;-73
2023/11/12 11:32:59;;;;;;;24.73;12.10;;;7.00;99.90;;;;;;4899055;28;20199;-73
2023/11/12 11:35:25;;;;;;;13.53;7.07;;;7.00;99.90;;;;;;4910496;28;20174;-73
2023/11/12 11:38:09;;;;;;;8.43;5.10;;;7.00;99.90;;;;;;4943510;28;20183;-73
2023/11/12 11:40:35;;;;;;;10.30;5.10;;;7.00;99.90;;;;;;4905676;28;20257;-73
2023/11/12 11:43:23;;;;;;;14.73;6.73;;;7.00;99.90;;;;;;4910242;28;20188;-73
2023/11/12 11:46:15;;;;;;;11.97;5.33;;;7.00;99.90;;;;;;4908585;28;20180;-73
2023/11/12 11:48:43;;;;;;;12.17;5.53;;;6.90;99.90;;;;;;4906124;28;20203;-73
2023/11/12 11:51:28;;;;;;;5.40;3.80;;;6.80;99.90;;;;;;4910530;28;20212;-74
2023/11/12 11:53:57;;;;;;;9.33;4.73;;;6.80;99.90;;;;;;4910176;28;20211;-73
2023/11/12 11:56:26;;;;;;;5.80;3.50;;;6.80;99.90;;;;;;4910970;28;20172;-73
2023/11/12 11:58:53;;;;;;;9.33;3.40;;;6.70;99.90;;;;;;4910712;28;20283;-73
2023/11/12 12:01:19;;;;;;;7.87;3.60;;;6.60;99.90;;;;;;4910486;28;20231;-74
2023/11/12 12:03:45;;;;;;;7.13;4.03;;;6.50;99.90;;;;;;4910515;28;20253;-73
2023/11/12 12:06:21;;;;;;;8.50;4.10;;;6.40;99.90;;;;;;4910141;28;20277;-73
2023/11/12 12:08:55;;;;;;;12.20;6.37;;;6.30;99.90;;;;;;4910682;28;20179;-73
2023/11/12 12:11:22;;;;;;;8.90;4.23;;;6.30;99.90;;;;;;4910443;28;20187;-74
2023/11/12 12:14:04;;;;;;;23.77;11.10;;;6.30;99.90;;;;;;4904756;28;20247;-73
2023/11/12 12:16:34;;;;;;;11.23;5.93;;;6.30;99.90;;;;;;4908459;28;20242;-73
2023/11/12 12:19:01;;;;;;;10.70;5.70;;;6.30;99.90;;;;;;4912522;28;20290;-74
2023/11/12 12:21:28;;;;;;;12.03;5.47;;;6.30;99.90;;;;;;4907649;28;20621;-73
2023/11/12 12:23:54;;;;;;;8.60;4.53;;;6.40;99.90;;;;;;4913134;28;20176;-74
2023/11/12 12:26:24;;;;;;;9.30;4.87;;;6.40;99.90;;;;;;4913732;28;20238;-75
2023/11/12 12:28:53;;;;;;;8.90;4.60;;;6.40;99.90;;;;;;4913701;28;20510;-74
2023/11/12 12:31:19;;;;;;;9.30;5.03;;;6.50;99.90;;;;;;4913477;28;20282;-74
2023/11/12 12:34:01;;;;;;;9.10;4.40;;;6.60;99.90;;;;;;4905849;28;20259;-73
2023/11/12 12:36:26;;;;;;;8.17;4.40;;;6.60;99.90;;;;;;4907329;28;20693;-73
2023/11/12 12:38:57;;;;;;;7.23;4.30;;;6.50;99.90;;;;;;4913538;28;20270;-75
2023/11/12 12:41:23;;;;;;;10.53;4.67;;;6.50;99.90;;;;;;4913588;28;20188;-75
2023/11/12 12:43:50;;;;;;;11.90;5.40;;;6.60;99.90;;;;;;4913480;28;20276;-75
2023/11/12 12:46:15;;;;;;;10.80;5.23;;;6.60;99.90;;;;;;4905391;28;20226;-74
2023/11/12 12:48:55;;;;;;;21.60;6.73;;;6.70;99.90;;;;;;4913369;28;20192;-74